createdAt,value
2018-07-31T00:01:13.138Z,12.43
2018-07-31T00:03:40.633Z,13.60
2018-07-31T00:06:08.116Z,25.55
2018-07-31T00:08:35.610Z,15.68
2018-07-31T00:11:03.160Z,15.57
2018-07-31T00:13:30.665Z,11.60
2018-07-31T00:15:58.156Z,12.65
2018-07-31T00:18:25.653Z,11.45
2018-07-31T00:20:53.168Z,19.73
2018-07-31T00:23:20.608Z,8.98
2018-07-31T00:25:48.097Z,14.10
2018-07-31T00:28:15.530Z,10.82
2018-07-31T00:30:43.010Z,9.98
2018-07-31T00:33:10.562Z,10.15
2018-07-31T00:35:38.023Z,9.18
2018-07-31T00:38:05.521Z,10.20
2018-07-31T00:40:32.990Z,13.32
2018-07-31T00:43:00.455Z,11.55
2018-07-31T00:45:27.972Z,15.55
2018-07-31T00:47:55.399Z,18.50
2018-07-31T00:50:22.892Z,14.75
2018-07-31T00:52:50.298Z,11.10
2018-07-31T00:55:17.728Z,9.90
2018-07-31T00:57:45.157Z,11.02
2018-07-31T01:00:12.633Z,9.52
2018-07-31T01:02:40.125Z,11.98
2018-07-31T01:05:07.749Z,11.95
2018-07-31T01:07:35.179Z,11.48
2018-07-31T01:10:02.684Z,12.13
2018-07-31T01:12:30.179Z,12.80
2018-07-31T01:14:57.669Z,9.13
2018-07-31T01:17:25.100Z,9.52
2018-07-31T01:19:52.556Z,9.65
2018-07-31T01:22:20.039Z,10.55
2018-07-31T01:24:47.626Z,9.05
2018-07-31T01:27:15.068Z,9.32
2018-07-31T01:29:42.541Z,8.15
2018-07-31T01:32:09.961Z,15.10
2018-07-31T01:34:37.436Z,11.25
2018-07-31T01:37:04.819Z,9.05
2018-07-31T01:39:32.312Z,9.45
2018-07-31T01:41:59.770Z,9.95
2018-07-31T01:44:27.178Z,9.02
2018-07-31T01:46:54.618Z,16.87
2018-07-31T01:49:22.018Z,11.90
2018-07-31T01:51:49.494Z,11.55
2018-07-31T01:54:17.011Z,10.07
2018-07-31T01:56:44.484Z,10.23
2018-07-31T01:59:11.941Z,11.00
2018-07-31T02:01:39.467Z,16.02
2018-07-31T02:04:06.934Z,11.07
2018-07-31T02:06:34.430Z,10.95
2018-07-31T02:09:01.886Z,9.63
2018-07-31T02:11:29.356Z,10.18
2018-07-31T02:13:56.771Z,24.12
2018-07-31T02:16:24.215Z,12.20
2018-07-31T02:18:51.634Z,11.00
2018-07-31T02:21:19.078Z,21.10
2018-07-31T02:23:46.514Z,11.75
2018-07-31T02:26:13.947Z,12.77
2018-07-31T02:28:41.595Z,9.90
2018-07-31T02:31:08.984Z,12.63
2018-07-31T02:33:36.490Z,11.05
2018-07-31T02:36:03.893Z,12.48
2018-07-31T02:38:31.342Z,11.38
2018-07-31T02:40:58.775Z,11.35
2018-07-31T02:43:26.253Z,9.35
2018-07-31T02:45:53.694Z,14.18
2018-07-31T02:48:21.149Z,9.18
2018-07-31T02:50:48.607Z,11.90
2018-07-31T02:53:16.012Z,12.55
2018-07-31T02:55:43.463Z,12.20
2018-07-31T02:58:10.946Z,12.07
2018-07-31T03:00:38.345Z,13.65
2018-07-31T03:03:05.809Z,15.43
2018-07-31T03:05:33.545Z,12.30
2018-07-31T03:08:01.242Z,16.27
2018-07-31T03:10:28.694Z,10.10
2018-07-31T03:12:56.186Z,14.23
2018-07-31T03:15:23.741Z,15.93
2018-07-31T03:17:51.171Z,14.80
2018-07-31T03:20:18.629Z,12.02
2018-07-31T03:22:46.078Z,9.02
2018-07-31T03:25:13.533Z,10.02
2018-07-31T03:27:41.150Z,10.35
2018-07-31T03:30:08.569Z,16.90
2018-07-31T03:32:36.012Z,9.77
2018-07-31T03:35:03.465Z,12.25
2018-07-31T03:37:30.919Z,8.70
2018-07-31T03:39:58.483Z,14.32
2018-07-31T03:42:25.929Z,10.32
2018-07-31T03:44:53.399Z,15.00
2018-07-31T03:47:20.823Z,8.85
2018-07-31T03:49:48.274Z,9.20
2018-07-31T03:52:15.711Z,17.95
2018-07-31T03:54:43.116Z,9.15
2018-07-31T03:57:10.561Z,9.98
2018-07-31T03:59:37.979Z,15.00
2018-07-31T04:02:05.406Z,10.77
2018-07-31T04:04:32.903Z,10.05
2018-07-31T04:07:00.350Z,12.43
2018-07-31T04:09:27.871Z,14.40
2018-07-31T04:11:55.318Z,9.55
2018-07-31T04:14:22.843Z,12.80
2018-07-31T04:16:50.480Z,9.52
2018-07-31T04:19:18.105Z,9.20
2018-07-31T04:21:45.749Z,12.65
2018-07-31T04:24:13.182Z,11.75
2018-07-31T04:26:40.712Z,7.45
2018-07-31T04:29:09.032Z,10.32
2018-07-31T04:31:36.486Z,8.85
2018-07-31T04:34:03.984Z,15.18
2018-07-31T04:36:31.469Z,8.80
2018-07-31T04:38:58.902Z,13.02
2018-07-31T04:41:26.346Z,8.95
2018-07-31T04:43:53.757Z,10.10
2018-07-31T04:46:21.259Z,11.02
2018-07-31T04:48:48.751Z,9.88
2018-07-31T04:51:16.263Z,12.27
2018-07-31T04:53:44.503Z,8.40
2018-07-31T04:56:11.943Z,11.82
2018-07-31T04:58:39.391Z,11.95
2018-07-31T05:01:06.806Z,13.62
2018-07-31T05:03:34.339Z,10.25
2018-07-31T05:06:01.784Z,12.32
2018-07-31T05:08:29.358Z,11.15
2018-07-31T05:10:56.823Z,10.80
2018-07-31T05:13:24.269Z,9.15
2018-07-31T05:15:51.690Z,9.70
2018-07-31T05:18:19.241Z,10.73
2018-07-31T05:20:46.585Z,8.98
2018-07-31T05:23:14.134Z,12.25
2018-07-31T05:25:41.555Z,11.48
2018-07-31T05:28:08.978Z,12.93
2018-07-31T05:30:36.385Z,14.60
2018-07-31T05:33:03.799Z,10.45
2018-07-31T05:35:31.291Z,12.13
2018-07-31T05:37:58.759Z,11.95
2018-07-31T05:40:26.162Z,9.98
2018-07-31T05:42:53.604Z,9.82
2018-07-31T05:45:21.090Z,12.60
2018-07-31T05:47:48.520Z,12.82
2018-07-31T05:50:16.088Z,16.40
2018-07-31T05:52:43.587Z,12.37
2018-07-31T05:55:11.124Z,9.70
2018-07-31T05:57:38.702Z,10.23
2018-07-31T06:00:06.145Z,13.07
2018-07-31T06:02:33.606Z,11.38
2018-07-31T06:05:01.084Z,10.95
2018-07-31T06:07:28.562Z,12.32
2018-07-31T06:09:56.073Z,13.05
2018-07-31T06:12:23.689Z,12.52
2018-07-31T06:14:51.141Z,12.73
2018-07-31T06:17:18.638Z,12.20
2018-07-31T06:19:46.487Z,11.12
2018-07-31T06:22:13.918Z,20.92
2018-07-31T06:24:41.537Z,12.45
2018-07-31T06:27:09.157Z,18.73
2018-07-31T06:29:36.694Z,11.68
2018-07-31T06:32:04.131Z,22.65
2018-07-31T06:34:31.596Z,11.27
2018-07-31T06:36:59.048Z,15.68
2018-07-31T06:39:26.675Z,17.95
2018-07-31T06:41:54.412Z,14.07
2018-07-31T06:44:21.972Z,14.27
2018-07-31T06:46:49.479Z,19.58
2018-07-31T06:49:17.240Z,12.18
2018-07-31T06:51:44.699Z,16.80
2018-07-31T06:54:12.230Z,15.00
2018-07-31T06:56:39.746Z,8.90
2018-07-31T06:59:07.214Z,12.57
2018-07-31T07:01:34.774Z,16.23
2018-07-31T07:04:02.238Z,13.50
2018-07-31T07:06:29.674Z,18.00
2018-07-31T07:08:57.239Z,20.00
2018-07-31T07:11:24.698Z,12.50
2018-07-31T07:13:52.507Z,17.33
2018-07-31T07:16:20.031Z,14.27
2018-07-31T07:18:47.451Z,12.25
2018-07-31T07:21:15.191Z,19.55
2018-07-31T07:23:42.775Z,16.50
2018-07-31T07:26:10.403Z,12.73
2018-07-31T07:28:38.047Z,13.52
2018-07-31T07:31:05.652Z,15.73
2018-07-31T07:33:33.180Z,20.80
2018-07-31T07:36:00.727Z,15.90
2018-07-31T07:38:28.170Z,13.95
2018-07-31T07:40:55.739Z,32.30
2018-07-31T07:43:23.181Z,19.27
2018-07-31T07:45:50.956Z,14.00
2018-07-31T07:48:18.464Z,18.02
2018-07-31T07:50:46.033Z,13.00
2018-07-31T07:53:13.485Z,13.32
2018-07-31T07:55:40.904Z,16.33
2018-07-31T07:58:08.363Z,13.13
2018-07-31T08:00:35.836Z,20.35
2018-07-31T08:03:03.379Z,14.52
2018-07-31T08:05:30.843Z,19.90
2018-07-31T08:07:58.296Z,15.07
2018-07-31T08:10:25.737Z,13.45
2018-07-31T08:12:53.171Z,14.90
2018-07-31T08:15:20.779Z,17.80
2018-07-31T08:17:48.303Z,17.27
2018-07-31T08:20:15.892Z,19.30
2018-07-31T08:22:43.378Z,14.15
2018-07-31T08:25:10.860Z,16.60
2018-07-31T08:27:39.335Z,16.15
2018-07-31T08:30:06.756Z,36.27
2018-07-31T08:32:34.240Z,20.85
2018-07-31T08:35:01.968Z,17.60
2018-07-31T09:16:43.184Z,25.05
2018-07-31T09:28:59.384Z,26.70
2018-07-31T09:31:26.991Z,22.80
2018-07-31T09:33:54.700Z,24.55
2018-07-31T09:36:22.191Z,22.55
2018-07-31T09:38:49.643Z,23.27
2018-07-31T09:41:17.170Z,19.65
2018-07-31T09:43:44.638Z,27.80
2018-07-31T09:46:12.292Z,24.63
2018-07-31T09:48:39.772Z,24.67
2018-07-31T09:51:07.293Z,24.95
2018-07-31T09:56:02.008Z,21.85
2018-07-31T09:58:29.438Z,22.20
2018-07-31T10:00:56.980Z,22.60
2018-07-31T10:03:24.451Z,21.65
2018-07-31T10:05:52.126Z,27.77
2018-07-31T10:08:19.656Z,28.08
2018-07-31T10:10:47.154Z,26.50
2018-07-31T10:13:14.668Z,26.90
2018-07-31T11:09:38.428Z,30.40
2018-07-31T11:14:33.099Z,27.60
2018-07-31T11:17:00.617Z,25.87
2018-07-31T11:24:22.164Z,28.95
2018-07-31T11:43:58.776Z,27.90
2018-07-31T11:48:53.756Z,29.27
2018-07-31T11:51:21.382Z,27.75
2018-07-31T11:53:49.030Z,29.58
2018-07-31T11:56:16.627Z,31.65
2018-07-31T11:58:44.243Z,31.27
2018-07-31T12:01:11.927Z,29.85
2018-07-31T12:03:39.339Z,33.10
2018-07-31T12:06:06.888Z,36.78
2018-07-31T12:08:34.360Z,42.57
2018-07-31T12:11:01.906Z,46.20
2018-07-31T12:13:29.442Z,32.17
2018-07-31T12:15:56.995Z,35.00
2018-07-31T12:18:24.515Z,42.57
2018-07-31T12:20:52.056Z,39.70
2018-07-31T12:23:20.462Z,36.83
2018-07-31T12:25:47.960Z,44.03
2018-07-31T12:28:16.730Z,40.60
2018-07-31T12:30:44.351Z,36.17
2018-07-31T12:33:11.848Z,33.73
2018-07-31T12:35:39.339Z,34.80
2018-07-31T12:38:06.819Z,31.15
2018-07-31T12:40:34.252Z,32.50
2018-07-31T12:43:01.790Z,32.20
2018-07-31T12:45:29.267Z,29.92
2018-07-31T12:47:57.016Z,33.05
2018-07-31T12:50:24.465Z,25.27
2018-07-31T12:52:51.920Z,37.97
2018-07-31T12:55:19.470Z,26.77
2018-07-31T12:57:46.955Z,26.92
2018-07-31T13:00:14.429Z,35.08
2018-07-31T13:02:41.937Z,32.38
2018-07-31T13:05:09.402Z,30.37
2018-07-31T13:07:36.855Z,25.75
2018-07-31T13:10:04.312Z,29.95
2018-07-31T13:12:31.757Z,24.85
2018-07-31T13:14:59.217Z,28.90
2018-07-31T13:17:26.761Z,24.65
2018-07-31T13:19:55.332Z,23.10
2018-07-31T13:22:22.773Z,19.10
2018-07-31T13:24:50.232Z,25.15
2018-07-31T13:27:17.745Z,28.33
2018-07-31T13:29:45.195Z,33.08
2018-07-31T13:32:12.675Z,42.13
2018-07-31T13:34:40.184Z,37.78
2018-07-31T13:37:07.804Z,43.97
2018-07-31T13:39:35.287Z,43.10
2018-07-31T13:42:02.896Z,36.37
2018-07-31T13:44:30.367Z,40.33
2018-07-31T13:46:57.831Z,52.27
2018-07-31T13:49:25.323Z,49.20
2018-07-31T13:51:52.822Z,40.97
2018-07-31T13:54:20.328Z,41.07
2018-07-31T13:56:47.822Z,58.70
2018-07-31T13:59:15.303Z,62.77
2018-07-31T14:01:42.946Z,47.67
2018-07-31T14:04:10.379Z,52.40
2018-07-31T14:06:37.863Z,53.50
2018-07-31T14:09:05.360Z,58.37
2018-07-31T14:11:32.812Z,54.97
2018-07-31T14:14:00.347Z,50.03
2018-07-31T14:16:27.877Z,45.70
2018-07-31T14:18:55.385Z,46.00
2018-07-31T14:21:22.878Z,38.30
2018-07-31T14:23:50.299Z,54.47
2018-07-31T14:26:17.711Z,41.40
2018-07-31T14:28:45.317Z,35.78
2018-07-31T14:31:12.780Z,46.92
2018-07-31T14:33:40.278Z,38.60
2018-07-31T14:36:07.864Z,36.13
2018-07-31T14:38:35.328Z,40.30
2018-07-31T14:41:02.842Z,40.60
2018-07-31T14:43:30.318Z,47.90
2018-07-31T14:45:58.200Z,47.75
2018-07-31T14:48:25.711Z,50.40
2018-07-31T14:50:53.216Z,44.13
2018-07-31T14:53:20.788Z,46.37
2018-07-31T14:55:48.278Z,45.90
2018-07-31T14:58:15.747Z,37.30
2018-07-31T15:00:43.193Z,38.77
2018-07-31T15:03:10.661Z,53.73
2018-07-31T15:05:38.365Z,55.17
2018-07-31T15:08:05.798Z,38.83
2018-07-31T15:10:33.260Z,59.50
2018-07-31T15:13:00.768Z,51.15
2018-07-31T15:15:28.307Z,54.67
2018-07-31T15:17:55.772Z,47.62
2018-07-31T15:20:23.460Z,51.88
2018-07-31T15:22:50.923Z,55.30
2018-07-31T15:25:18.465Z,46.87
2018-07-31T15:27:46.002Z,50.50
2018-07-31T15:30:13.484Z,52.00
2018-07-31T15:32:40.967Z,41.47
2018-07-31T15:35:08.481Z,53.33
2018-07-31T15:37:35.922Z,59.70
2018-07-31T15:40:03.437Z,38.40
2018-07-31T15:42:31.137Z,41.05
2018-07-31T15:44:58.746Z,42.15
2018-07-31T15:47:26.221Z,34.90
2018-07-31T15:49:53.691Z,32.08
2018-07-31T15:52:21.130Z,46.85
2018-07-31T15:54:48.607Z,35.92
2018-07-31T15:57:16.049Z,33.20
2018-07-31T15:59:43.582Z,30.77
2018-07-31T16:02:10.982Z,34.03
2018-07-31T16:04:38.475Z,35.65
2018-07-31T16:07:05.943Z,35.05
2018-07-31T16:09:33.358Z,33.83
2018-07-31T16:12:00.969Z,32.15
2018-07-31T16:14:28.505Z,29.85
2018-07-31T16:16:55.952Z,26.00
2018-07-31T16:19:23.991Z,34.70
2018-07-31T16:21:51.663Z,36.80
2018-07-31T16:24:19.076Z,30.40
2018-07-31T16:26:46.549Z,31.20
2018-07-31T16:29:14.018Z,26.27
2018-07-31T16:31:41.456Z,29.08
2018-07-31T16:34:09.041Z,28.08
2018-07-31T16:36:36.519Z,32.58
2018-07-31T16:39:04.008Z,34.58
2018-07-31T16:41:31.528Z,35.20
2018-07-31T16:43:58.977Z,35.63
2018-07-31T16:46:26.431Z,29.42
2018-07-31T16:48:54.014Z,21.35
2018-07-31T16:51:21.587Z,21.45
2018-07-31T16:53:49.020Z,25.52
2018-07-31T16:56:16.587Z,27.75
2018-07-31T16:58:44.107Z,30.17
2018-07-31T17:01:11.627Z,27.87
2018-07-31T17:03:39.302Z,26.05
2018-07-31T17:06:06.771Z,22.60
2018-07-31T17:08:34.219Z,19.85
2018-07-31T17:11:01.740Z,21.20
2018-07-31T17:13:29.245Z,17.45
2018-07-31T17:15:56.777Z,21.48
2018-07-31T17:18:24.249Z,19.08
2018-07-31T17:20:52.113Z,22.33
2018-07-31T17:23:19.765Z,19.42
2018-07-31T17:25:47.303Z,17.30
2018-07-31T17:30:48.395Z,15.40
2018-07-31T17:33:15.836Z,13.75
2018-07-31T17:35:43.310Z,15.23
2018-07-31T17:38:10.820Z,16.20
2018-07-31T17:40:38.320Z,16.60
2018-07-31T17:43:05.816Z,21.90
2018-07-31T17:45:33.257Z,25.80
2018-07-31T17:48:00.722Z,24.40
2018-07-31T17:50:28.353Z,20.00
2018-07-31T17:52:55.881Z,20.00
2018-07-31T17:55:23.456Z,20.48
2018-07-31T17:57:50.919Z,19.65
2018-07-31T18:00:18.449Z,19.55
2018-07-31T18:02:45.925Z,25.40
2018-07-31T18:05:13.554Z,20.77
2018-07-31T18:07:41.183Z,18.10
2018-07-31T18:10:08.731Z,19.17
2018-07-31T18:12:36.183Z,18.95
2018-07-31T18:15:03.852Z,20.37
2018-07-31T18:17:31.336Z,18.50
2018-07-31T18:19:58.894Z,19.10
2018-07-31T18:22:26.303Z,18.17
2018-07-31T18:24:53.981Z,15.88
2018-07-31T18:27:21.427Z,19.30
2018-07-31T18:29:48.922Z,22.23
2018-07-31T18:32:16.506Z,16.25
2018-07-31T18:34:44.016Z,18.10
2018-07-31T18:37:11.555Z,17.23
2018-07-31T18:44:33.642Z,17.60
2018-07-31T18:47:01.112Z,19.37
2018-07-31T18:49:28.608Z,18.58
2018-07-31T18:51:56.049Z,17.60
2018-07-31T18:54:23.608Z,15.23
2018-07-31T18:59:18.105Z,16.73
2018-07-31T19:01:45.675Z,13.27
2018-07-31T19:04:13.130Z,13.48
2018-07-31T19:06:40.596Z,13.55
2018-07-31T19:09:08.216Z,14.82
2018-07-31T19:11:35.648Z,12.23
2018-07-31T19:14:03.091Z,10.70
2018-07-31T19:16:30.554Z,14.63
2018-07-31T19:18:58.008Z,13.15
2018-07-31T19:21:25.506Z,13.27
2018-07-31T19:23:53.058Z,12.57
2018-07-31T19:26:20.565Z,12.13
2018-07-31T19:28:48.017Z,13.02
2018-07-31T19:31:15.479Z,12.63
2018-07-31T19:33:43.010Z,17.50
2018-07-31T19:36:10.428Z,15.13
2018-07-31T19:38:37.926Z,18.15
2018-07-31T19:41:05.448Z,18.12
2018-07-31T19:43:32.956Z,14.13
2018-07-31T19:46:00.515Z,14.00
2018-07-31T19:48:27.969Z,13.25
2018-07-31T19:50:55.393Z,16.50
2018-07-31T19:53:23.161Z,12.90
2018-07-31T19:55:50.609Z,16.10
2018-07-31T19:58:18.090Z,11.80
2018-07-31T20:00:45.524Z,11.15
2018-07-31T20:03:12.963Z,14.55
2018-07-31T20:05:40.419Z,15.35
2018-07-31T20:08:07.842Z,14.27
2018-07-31T20:10:35.307Z,11.75
2018-07-31T20:13:02.806Z,13.13
2018-07-31T20:15:30.393Z,12.15
2018-07-31T20:17:57.816Z,15.00
2018-07-31T20:20:25.301Z,12.10
2018-07-31T20:22:52.746Z,12.00
2018-07-31T20:25:20.413Z,11.23
2018-07-31T20:27:47.940Z,13.85
2018-07-31T20:30:15.437Z,14.15
2018-07-31T20:32:42.883Z,13.55
2018-07-31T20:35:10.361Z,12.50
2018-07-31T20:37:37.918Z,11.07
2018-07-31T20:40:06.768Z,14.70
2018-07-31T20:42:34.259Z,12.50
2018-07-31T20:45:01.723Z,15.18
2018-07-31T20:47:29.203Z,18.52
2018-07-31T20:49:56.696Z,17.02
2018-07-31T20:52:24.143Z,15.88
2018-07-31T20:54:51.660Z,21.62
2018-07-31T20:57:19.176Z,15.30
2018-07-31T20:59:46.648Z,17.83
2018-07-31T21:02:14.232Z,18.90
2018-07-31T21:04:41.709Z,18.45
2018-07-31T21:07:09.151Z,19.23
2018-07-31T21:09:36.616Z,15.50
2018-07-31T21:12:04.108Z,15.07
2018-07-31T21:14:31.542Z,17.73
2018-07-31T21:16:59.112Z,18.87
2018-07-31T21:19:26.517Z,20.17
2018-07-31T21:21:54.058Z,19.25
2018-07-31T21:24:21.493Z,15.15
2018-07-31T21:26:49.018Z,15.25
2018-07-31T21:29:16.486Z,16.67
2018-07-31T21:31:43.943Z,16.15
2018-07-31T21:34:11.441Z,19.08
2018-07-31T21:36:38.912Z,16.90
2018-07-31T21:39:06.370Z,15.70
2018-07-31T21:41:33.830Z,18.62
2018-07-31T21:44:02.369Z,16.85
2018-07-31T21:46:30.061Z,16.65
2018-07-31T21:48:57.508Z,15.10
2018-07-31T21:51:24.976Z,14.23
2018-07-31T21:53:52.442Z,13.98
2018-07-31T21:56:20.127Z,15.45
2018-07-31T21:58:47.564Z,14.95
2018-07-31T22:01:15.127Z,12.68
2018-07-31T22:03:42.550Z,12.25
2018-07-31T22:06:10.055Z,16.40
2018-07-31T22:08:37.565Z,11.90
2018-07-31T22:11:05.136Z,12.25
2018-07-31T22:13:32.617Z,19.33
2018-07-31T22:16:00.139Z,13.50
2018-07-31T22:18:27.679Z,11.52
2018-07-31T22:20:55.151Z,12.73
2018-07-31T22:23:22.685Z,16.90
2018-07-31T22:25:50.165Z,13.45
2018-07-31T22:28:17.607Z,17.15
2018-07-31T22:30:45.191Z,12.45
2018-07-31T22:33:12.611Z,10.00
2018-07-31T22:35:40.162Z,17.70
2018-07-31T22:38:07.668Z,13.32
2018-07-31T22:40:35.259Z,15.40
2018-07-31T22:43:02.766Z,15.50
2018-07-31T22:45:30.190Z,14.80
2018-07-31T22:47:57.649Z,19.15
2018-07-31T22:50:25.219Z,17.65
2018-07-31T22:52:52.759Z,11.88
2018-07-31T22:55:20.204Z,14.20
2018-07-31T22:57:47.666Z,13.82
2018-07-31T23:00:15.139Z,14.02
2018-07-31T23:02:42.618Z,15.32
2018-07-31T23:05:10.139Z,12.20
2018-07-31T23:07:37.834Z,11.50
2018-07-31T23:10:05.331Z,19.00
2018-07-31T23:12:32.874Z,14.13
2018-07-31T23:15:00.351Z,17.17
2018-07-31T23:17:27.794Z,11.35
2018-07-31T23:19:55.245Z,15.18
2018-07-31T23:22:23.400Z,12.52
2018-07-31T23:24:50.982Z,12.48
2018-07-31T23:27:18.436Z,13.65
2018-07-31T23:29:45.883Z,18.55
2018-07-31T23:32:13.364Z,12.90
2018-07-31T23:34:40.874Z,16.83
2018-07-31T23:37:08.314Z,13.05
2018-07-31T23:39:35.751Z,17.55
2018-07-31T23:42:03.252Z,15.68
2018-07-31T23:44:30.878Z,13.40
2018-07-31T23:46:58.597Z,14.70
2018-07-31T23:49:26.048Z,13.30
2018-07-31T23:51:53.541Z,15.15
2018-07-31T23:54:21.053Z,15.23
2018-07-31T23:56:48.642Z,13.13
2018-07-31T23:59:16.099Z,11.77
